sensor_id;sensor_type;location;lat;lon;timestamp;P1;durP1;ratioP1;P2;durP2;ratioP2
77379;SDS011;66439;50.106;10.996;2023-04-24T00:00:56;7.10;;;4.40;;
77379;SDS011;66439;50.106;10.996;2023-04-24T00:03:05;5.10;;;4.60;;
77379;SDS011;66439;50.106;10.996;2023-04-24T00:05:19;8.20;;;4.70;;
77379;SDS011;66439;50.106;10.996;2023-04-24T00:07:36;7.10;;;4.70;;
77379;SDS011;66439;50.106;10.996;2023-04-24T00:09:44;5.90;;;3.80;;
77379;SDS011;66439;50.106;10.996;2023-04-24T00:11:50;6.10;;;3.30;;
77379;SDS011;66439;50.106;10.996;2023-04-24T00:13:58;5.20;;;3.60;;
77379;SDS011;66439;50.106;10.996;2023-04-24T00:16:05;6.50;;;3.50;;
77379;SDS011;66439;50.106;10.996;2023-04-24T00:18:11;4.30;;;3.40;;
77379;SDS011;66439;50.106;10.996;2023-04-24T00:20:17;9.00;;;4.80;;
77379;SDS011;66439;50.106;10.996;2023-04-24T00:22:26;29.50;;;10.10;;
77379;SDS011;66439;50.106;10.996;2023-04-24T00:24:40;7.10;;;4.50;;
77379;SDS011;66439;50.106;10.996;2023-04-24T00:26:48;8.60;;;4.30;;
77379;SDS011;66439;50.106;10.996;2023-04-24T00:28:59;4.50;;;3.70;;
77379;SDS011;66439;50.106;10.996;2023-04-24T00:31:05;7.70;;;4.10;;
77379;SDS011;66439;50.106;10.996;2023-04-24T00:33:15;4.30;;;3.30;;
77379;SDS011;66439;50.106;10.996;2023-04-24T00:35:20;5.10;;;3.90;;
77379;SDS011;66439;50.106;10.996;2023-04-24T00:37:26;4.00;;;3.60;;
77379;SDS011;66439;50.106;10.996;2023-04-24T00:39:32;5.00;;;3.40;;
77379;SDS011;66439;50.106;10.996;2023-04-24T00:41:40;5.90;;;3.30;;
77379;SDS011;66439;50.106;10.996;2023-04-24T00:43:51;6.70;;;3.20;;
77379;SDS011;66439;50.106;10.996;2023-04-24T00:46:03;5.60;;;3.00;;
77379;SDS011;66439;50.106;10.996;2023-04-24T00:48:13;3.40;;;2.70;;
77379;SDS011;66439;50.106;10.996;2023-04-24T00:50:32;7.30;;;3.90;;
77379;SDS011;66439;50.106;10.996;2023-04-24T00:52:47;4.50;;;2.90;;
77379;SDS011;66439;50.106;10.996;2023-04-24T00:57:00;3.30;;;2.60;;
77379;SDS011;66439;50.106;10.996;2023-04-24T00:59:05;3.80;;;2.60;;
77379;SDS011;66439;50.106;10.996;2023-04-24T01:01:13;4.40;;;2.80;;
77379;SDS011;66439;50.106;10.996;2023-04-24T01:03:21;3.80;;;2.20;;
77379;SDS011;66439;50.106;10.996;2023-04-24T01:05:26;4.40;;;2.20;;
77379;SDS011;66439;50.106;10.996;2023-04-24T01:07:37;3.80;;;2.10;;
77379;SDS011;66439;50.106;10.996;2023-04-24T01:09:43;4.50;;;2.60;;
77379;SDS011;66439;50.106;10.996;2023-04-24T01:11:50;3.50;;;2.30;;
77379;SDS011;66439;50.106;10.996;2023-04-24T01:13:53;3.90;;;2.20;;
77379;SDS011;66439;50.106;10.996;2023-04-24T01:15:56;9.60;;;2.40;;
77379;SDS011;66439;50.106;10.996;2023-04-24T01:18:02;5.20;;;2.20;;
77379;SDS011;66439;50.106;10.996;2023-04-24T01:20:05;3.30;;;2.50;;
77379;SDS011;66439;50.106;10.996;2023-04-24T01:22:15;4.00;;;2.40;;
77379;SDS011;66439;50.106;10.996;2023-04-24T01:24:19;3.40;;;2.10;;
77379;SDS011;66439;50.106;10.996;2023-04-24T01:26:22;4.80;;;1.90;;
77379;SDS011;66439;50.106;10.996;2023-04-24T01:28:27;3.30;;;2.00;;
77379;SDS011;66439;50.106;10.996;2023-04-24T01:30:30;6.70;;;2.00;;
77379;SDS011;66439;50.106;10.996;2023-04-24T01:32:34;3.10;;;1.80;;
77379;SDS011;66439;50.106;10.996;2023-04-24T01:34:37;5.30;;;1.90;;
77379;SDS011;66439;50.106;10.996;2023-04-24T01:36:42;4.40;;;2.10;;
77379;SDS011;66439;50.106;10.996;2023-04-24T01:38:48;3.40;;;1.80;;
77379;SDS011;66439;50.106;10.996;2023-04-24T01:40:51;5.30;;;2.50;;
77379;SDS011;66439;50.106;10.996;2023-04-24T01:42:55;3.80;;;2.00;;
77379;SDS011;66439;50.106;10.996;2023-04-24T01:44:59;4.10;;;2.00;;
77379;SDS011;66439;50.106;10.996;2023-04-24T01:47:06;3.50;;;1.90;;
77379;SDS011;66439;50.106;10.996;2023-04-24T01:49:10;3.30;;;1.90;;
77379;SDS011;66439;50.106;10.996;2023-04-24T01:51:13;4.30;;;1.80;;
77379;SDS011;66439;50.106;10.996;2023-04-24T01:53:16;3.50;;;1.80;;
77379;SDS011;66439;50.106;10.996;2023-04-24T01:55:21;4.20;;;2.30;;
77379;SDS011;66439;50.106;10.996;2023-04-24T01:57:25;5.00;;;1.80;;
77379;SDS011;66439;50.106;10.996;2023-04-24T01:59:31;4.00;;;2.20;;
77379;SDS011;66439;50.106;10.996;2023-04-24T02:01:36;3.50;;;2.00;;
77379;SDS011;66439;50.106;10.996;2023-04-24T02:03:39;3.80;;;1.80;;
77379;SDS011;66439;50.106;10.996;2023-04-24T02:05:45;10.80;;;2.20;;
77379;SDS011;66439;50.106;10.996;2023-04-24T02:07:50;4.80;;;2.10;;
77379;SDS011;66439;50.106;10.996;2023-04-24T02:09:54;4.90;;;2.00;;
77379;SDS011;66439;50.106;10.996;2023-04-24T02:11:58;6.00;;;2.20;;
77379;SDS011;66439;50.106;10.996;2023-04-24T02:14:02;4.10;;;2.10;;
77379;SDS011;66439;50.106;10.996;2023-04-24T02:16:06;3.20;;;1.60;;
77379;SDS011;66439;50.106;10.996;2023-04-24T02:18:09;7.50;;;2.50;;
77379;SDS011;66439;50.106;10.996;2023-04-24T02:20:14;5.20;;;2.00;;
77379;SDS011;66439;50.106;10.996;2023-04-24T02:22:18;4.40;;;1.90;;
77379;SDS011;66439;50.106;10.996;2023-04-24T02:24:21;4.00;;;1.80;;
77379;SDS011;66439;50.106;10.996;2023-04-24T02:26:24;4.60;;;2.00;;
77379;SDS011;66439;50.106;10.996;2023-04-24T02:28:29;3.90;;;2.10;;
77379;SDS011;66439;50.106;10.996;2023-04-24T02:30:33;7.40;;;2.10;;
77379;SDS011;66439;50.106;10.996;2023-04-24T02:32:37;3.20;;;2.00;;
77379;SDS011;66439;50.106;10.996;2023-04-24T02:34:42;6.30;;;2.40;;
77379;SDS011;66439;50.106;10.996;2023-04-24T02:36:44;3.00;;;1.90;;
77379;SDS011;66439;50.106;10.996;2023-04-24T02:38:47;3.20;;;1.80;;
77379;SDS011;66439;50.106;10.996;2023-04-24T02:40:52;3.10;;;2.70;;
77379;SDS011;66439;50.106;10.996;2023-04-24T02:42:55;3.90;;;1.80;;
77379;SDS011;66439;50.106;10.996;2023-04-24T02:44:59;3.40;;;1.90;;
77379;SDS011;66439;50.106;10.996;2023-04-24T02:47:02;2.90;;;1.70;;
77379;SDS011;66439;50.106;10.996;2023-04-24T02:49:06;3.40;;;1.80;;
77379;SDS011;66439;50.106;10.996;2023-04-24T02:51:10;3.30;;;1.70;;
77379;SDS011;66439;50.106;10.996;2023-04-24T02:53:14;4.70;;;1.50;;
77379;SDS011;66439;50.106;10.996;2023-04-24T02:55:17;4.60;;;1.80;;
77379;SDS011;66439;50.106;10.996;2023-04-24T02:57:20;4.10;;;1.90;;
77379;SDS011;66439;50.106;10.996;2023-04-24T02:59:24;3.80;;;2.00;;
77379;SDS011;66439;50.106;10.996;2023-04-24T03:01:27;4.10;;;1.80;;
77379;SDS011;66439;50.106;10.996;2023-04-24T03:03:30;4.60;;;2.10;;
77379;SDS011;66439;50.106;10.996;2023-04-24T03:05:33;3.80;;;2.50;;
77379;SDS011;66439;50.106;10.996;2023-04-24T03:07:38;5.20;;;2.70;;
77379;SDS011;66439;50.106;10.996;2023-04-24T03:09:43;4.60;;;2.20;;
77379;SDS011;66439;50.106;10.996;2023-04-24T03:11:50;7.20;;;2.00;;
77379;SDS011;66439;50.106;10.996;2023-04-24T03:13:54;10.60;;;2.70;;
77379;SDS011;66439;50.106;10.996;2023-04-24T03:15:57;8.20;;;2.70;;
77379;SDS011;66439;50.106;10.996;2023-04-24T03:18:03;4.40;;;2.50;;
77379;SDS011;66439;50.106;10.996;2023-04-24T03:20:07;5.40;;;2.70;;
77379;SDS011;66439;50.106;10.996;2023-04-24T03:22:10;5.00;;;2.60;;
77379;SDS011;66439;50.106;10.996;2023-04-24T03:24:14;5.70;;;2.90;;
77379;SDS011;66439;50.106;10.996;2023-04-24T03:26:18;6.50;;;3.20;;
77379;SDS011;66439;50.106;10.996;2023-04-24T03:28:32;6.00;;;3.20;;
77379;SDS011;66439;50.106;10.996;2023-04-24T03:30:39;3.90;;;2.70;;
77379;SDS011;66439;50.106;10.996;2023-04-24T03:32:42;6.60;;;3.70;;
77379;SDS011;66439;50.106;10.996;2023-04-24T03:34:48;7.30;;;3.30;;
77379;SDS011;66439;50.106;10.996;2023-04-24T03:36:52;4.30;;;2.70;;
77379;SDS011;66439;50.106;10.996;2023-04-24T03:38:56;5.40;;;3.40;;
77379;SDS011;66439;50.106;10.996;2023-04-24T03:41:08;5.10;;;3.40;;
77379;SDS011;66439;50.106;10.996;2023-04-24T03:43:16;6.40;;;3.10;;
77379;SDS011;66439;50.106;10.996;2023-04-24T03:45:20;4.50;;;3.00;;
77379;SDS011;66439;50.106;10.996;2023-04-24T03:47:24;4.80;;;3.50;;
77379;SDS011;66439;50.106;10.996;2023-04-24T03:49:28;4.00;;;2.70;;
77379;SDS011;66439;50.106;10.996;2023-04-24T03:51:32;6.30;;;3.30;;
77379;SDS011;66439;50.106;10.996;2023-04-24T03:53:44;5.50;;;2.90;;
77379;SDS011;66439;50.106;10.996;2023-04-24T03:55:51;18.60;;;7.00;;
77379;SDS011;66439;50.106;10.996;2023-04-24T03:57:53;21.40;;;6.60;;
77379;SDS011;66439;50.106;10.996;2023-04-24T03:59:57;7.80;;;3.80;;
77379;SDS011;66439;50.106;10.996;2023-04-24T04:02:00;7.40;;;3.30;;
77379;SDS011;66439;50.106;10.996;2023-04-24T04:04:03;5.20;;;2.90;;
77379;SDS011;66439;50.106;10.996;2023-04-24T04:06:08;6.60;;;2.60;;
77379;SDS011;66439;50.106;10.996;2023-04-24T04:08:14;5.50;;;3.00;;
77379;SDS011;66439;50.106;10.996;2023-04-24T04:10:20;4.10;;;2.60;;
77379;SDS011;66439;50.106;10.996;2023-04-24T04:12:24;5.20;;;2.90;;
77379;SDS011;66439;50.106;10.996;2023-04-24T04:14:28;4.00;;;2.30;;
77379;SDS011;66439;50.106;10.996;2023-04-24T04:16:32;6.90;;;2.80;;
77379;SDS011;66439;50.106;10.996;2023-04-24T04:18:38;6.20;;;3.50;;
77379;SDS011;66439;50.106;10.996;2023-04-24T04:20:43;3.90;;;2.50;;
77379;SDS011;66439;50.106;10.996;2023-04-24T04:22:47;4.30;;;2.40;;
77379;SDS011;66439;50.106;10.996;2023-04-24T04:24:56;5.40;;;3.00;;
77379;SDS011;66439;50.106;10.996;2023-04-24T04:27:01;5.10;;;2.60;;
77379;SDS011;66439;50.106;10.996;2023-04-24T04:29:08;4.80;;;2.30;;
77379;SDS011;66439;50.106;10.996;2023-04-24T04:31:16;5.00;;;2.80;;
77379;SDS011;66439;50.106;10.996;2023-04-24T04:33:21;4.50;;;2.40;;
77379;SDS011;66439;50.106;10.996;2023-04-24T04:35:25;4.30;;;2.90;;
77379;SDS011;66439;50.106;10.996;2023-04-24T04:37:29;7.20;;;2.80;;
77379;SDS011;66439;50.106;10.996;2023-04-24T04:39:54;7.20;;;2.50;;
77379;SDS011;66439;50.106;10.996;2023-04-24T04:44:10;3.70;;;2.40;;
77379;SDS011;66439;50.106;10.996;2023-04-24T04:46:16;6.20;;;1.90;;
77379;SDS011;66439;50.106;10.996;2023-04-24T04:48:33;5.50;;;2.30;;
77379;SDS011;66439;50.106;10.996;2023-04-24T04:50:40;6.20;;;2.40;;
77379;SDS011;66439;50.106;10.996;2023-04-24T04:52:48;5.70;;;2.40;;
77379;SDS011;66439;50.106;10.996;2023-04-24T04:55:01;4.70;;;2.70;;
77379;SDS011;66439;50.106;10.996;2023-04-24T04:57:25;3.20;;;2.20;;
77379;SDS011;66439;50.106;10.996;2023-04-24T04:59:28;3.70;;;2.30;;
77379;SDS011;66439;50.106;10.996;2023-04-24T05:01:52;3.60;;;2.10;;
77379;SDS011;66439;50.106;10.996;2023-04-24T05:03:56;4.80;;;2.60;;
77379;SDS011;66439;50.106;10.996;2023-04-24T05:06:01;5.30;;;2.10;;
77379;SDS011;66439;50.106;10.996;2023-04-24T05:08:07;4.00;;;2.10;;
77379;SDS011;66439;50.106;10.996;2023-04-24T05:10:27;8.00;;;2.10;;
77379;SDS011;66439;50.106;10.996;2023-04-24T05:12:34;6.00;;;2.20;;
77379;SDS011;66439;50.106;10.996;2023-04-24T05:14:43;6.80;;;2.20;;
77379;SDS011;66439;50.106;10.996;2023-04-24T05:16:47;5.70;;;2.20;;
77379;SDS011;66439;50.106;10.996;2023-04-24T05:18:50;7.50;;;1.90;;
77379;SDS011;66439;50.106;10.996;2023-04-24T05:20:56;5.80;;;2.50;;
77379;SDS011;66439;50.106;10.996;2023-04-24T05:23:00;6.30;;;2.50;;
77379;SDS011;66439;50.106;10.996;2023-04-24T05:25:04;4.20;;;2.10;;
77379;SDS011;66439;50.106;10.996;2023-04-24T05:27:16;5.70;;;2.90;;
77379;SDS011;66439;50.106;10.996;2023-04-24T05:29:22;5.70;;;2.90;;
77379;SDS011;66439;50.106;10.996;2023-04-24T05:31:25;11.50;;;3.70;;
77379;SDS011;66439;50.106;10.996;2023-04-24T05:33:30;6.30;;;3.40;;
77379;SDS011;66439;50.106;10.996;2023-04-24T05:35:33;10.10;;;3.40;;
77379;SDS011;66439;50.106;10.996;2023-04-24T05:37:39;6.60;;;2.70;;
77379;SDS011;66439;50.106;10.996;2023-04-24T05:39:42;9.00;;;3.40;;
77379;SDS011;66439;50.106;10.996;2023-04-24T05:41:45;8.20;;;3.20;;
77379;SDS011;66439;50.106;10.996;2023-04-24T05:43:48;4.90;;;2.40;;
77379;SDS011;66439;50.106;10.996;2023-04-24T05:45:51;10.00;;;2.50;;
77379;SDS011;66439;50.106;10.996;2023-04-24T05:47:55;6.50;;;3.10;;
77379;SDS011;66439;50.106;10.996;2023-04-24T05:49:58;4.20;;;2.50;;
77379;SDS011;66439;50.106;10.996;2023-04-24T05:52:01;4.50;;;2.30;;
77379;SDS011;66439;50.106;10.996;2023-04-24T05:54:06;5.60;;;2.30;;
77379;SDS011;66439;50.106;10.996;2023-04-24T05:56:11;7.60;;;2.20;;
77379;SDS011;66439;50.106;10.996;2023-04-24T05:58:14;6.30;;;2.30;;
77379;SDS011;66439;50.106;10.996;2023-04-24T06:00:17;6.40;;;2.70;;
77379;SDS011;66439;50.106;10.996;2023-04-24T06:02:27;5.90;;;2.00;;
77379;SDS011;66439;50.106;10.996;2023-04-24T06:04:32;7.00;;;2.30;;
77379;SDS011;66439;50.106;10.996;2023-04-24T06:06:36;5.60;;;2.00;;
77379;SDS011;66439;50.106;10.996;2023-04-24T06:08:41;6.40;;;2.20;;
77379;SDS011;66439;50.106;10.996;2023-04-24T06:10:47;5.60;;;2.50;;
77379;SDS011;66439;50.106;10.996;2023-04-24T06:12:51;8.70;;;3.00;;
77379;SDS011;66439;50.106;10.996;2023-04-24T06:14:54;6.70;;;3.00;;
77379;SDS011;66439;50.106;10.996;2023-04-24T06:17:06;6.10;;;2.50;;
77379;SDS011;66439;50.106;10.996;2023-04-24T06:19:11;4.10;;;2.50;;
77379;SDS011;66439;50.106;10.996;2023-04-24T06:21:15;5.50;;;2.20;;
77379;SDS011;66439;50.106;10.996;2023-04-24T06:23:20;5.40;;;2.50;;
77379;SDS011;66439;50.106;10.996;2023-04-24T06:25:24;3.00;;;1.70;;
77379;SDS011;66439;50.106;10.996;2023-04-24T06:27:29;3.20;;;1.90;;
77379;SDS011;66439;50.106;10.996;2023-04-24T06:29:33;6.30;;;2.30;;
77379;SDS011;66439;50.106;10.996;2023-04-24T06:31:37;4.90;;;1.90;;
77379;SDS011;66439;50.106;10.996;2023-04-24T06:33:40;4.00;;;1.80;;
77379;SDS011;66439;50.106;10.996;2023-04-24T06:35:44;4.90;;;1.90;;
77379;SDS011;66439;50.106;10.996;2023-04-24T06:37:47;5.40;;;2.00;;
77379;SDS011;66439;50.106;10.996;2023-04-24T06:39:50;4.40;;;2.10;;
77379;SDS011;66439;50.106;10.996;2023-04-24T06:41:55;3.80;;;2.00;;
77379;SDS011;66439;50.106;10.996;2023-04-24T06:44:00;4.00;;;2.10;;
77379;SDS011;66439;50.106;10.996;2023-04-24T06:46:12;2.90;;;1.90;;
77379;SDS011;66439;50.106;10.996;2023-04-24T06:48:15;3.40;;;1.70;;
77379;SDS011;66439;50.106;10.996;2023-04-24T06:50:19;4.90;;;2.10;;
77379;SDS011;66439;50.106;10.996;2023-04-24T06:52:22;5.30;;;2.10;;
77379;SDS011;66439;50.106;10.996;2023-04-24T06:54:25;4.60;;;2.10;;
77379;SDS011;66439;50.106;10.996;2023-04-24T06:56:29;5.20;;;2.60;;
77379;SDS011;66439;50.106;10.996;2023-04-24T06:58:31;2.50;;;1.90;;
77379;SDS011;66439;50.106;10.996;2023-04-24T07:00:34;2.70;;;1.60;;
77379;SDS011;66439;50.106;10.996;2023-04-24T07:02:37;3.00;;;1.70;;
77379;SDS011;66439;50.106;10.996;2023-04-24T07:04:41;3.80;;;1.80;;
77379;SDS011;66439;50.106;10.996;2023-04-24T07:06:45;2.20;;;1.50;;
77379;SDS011;66439;50.106;10.996;2023-04-24T07:10:57;2.30;;;1.50;;
77379;SDS011;66439;50.106;10.996;2023-04-24T07:13:02;3.00;;;2.00;;
77379;SDS011;66439;50.106;10.996;2023-04-24T07:15:08;2.60;;;1.90;;
77379;SDS011;66439;50.106;10.996;2023-04-24T07:17:11;3.90;;;1.50;;
77379;SDS011;66439;50.106;10.996;2023-04-24T07:19:15;3.80;;;1.60;;
77379;SDS011;66439;50.106;10.996;2023-04-24T07:21:19;3.20;;;1.70;;
77379;SDS011;66439;50.106;10.996;2023-04-24T07:23:22;3.90;;;1.80;;
77379;SDS011;66439;50.106;10.996;2023-04-24T07:25:25;3.80;;;1.80;;
77379;SDS011;66439;50.106;10.996;2023-04-24T07:27:28;3.10;;;1.80;;
77379;SDS011;66439;50.106;10.996;2023-04-24T07:29:32;3.00;;;1.90;;
77379;SDS011;66439;50.106;10.996;2023-04-24T07:31:36;4.10;;;1.70;;
77379;SDS011;66439;50.106;10.996;2023-04-24T07:33:41;5.40;;;2.60;;
77379;SDS011;66439;50.106;10.996;2023-04-24T07:35:45;4.80;;;2.20;;
77379;SDS011;66439;50.106;10.996;2023-04-24T07:37:48;3.60;;;2.40;;
77379;SDS011;66439;50.106;10.996;2023-04-24T07:39:52;3.60;;;2.30;;
77379;SDS011;66439;50.106;10.996;2023-04-24T07:41:56;6.10;;;2.20;;
77379;SDS011;66439;50.106;10.996;2023-04-24T07:43:58;4.00;;;2.00;;
77379;SDS011;66439;50.106;10.996;2023-04-24T07:46:04;4.20;;;2.20;;
77379;SDS011;66439;50.106;10.996;2023-04-24T07:48:10;3.60;;;2.30;;
77379;SDS011;66439;50.106;10.996;2023-04-24T07:50:14;5.10;;;2.10;;
77379;SDS011;66439;50.106;10.996;2023-04-24T07:52:19;4.50;;;2.30;;
77379;SDS011;66439;50.106;10.996;2023-04-24T07:54:23;3.80;;;2.30;;
77379;SDS011;66439;50.106;10.996;2023-04-24T07:56:27;6.20;;;2.60;;
77379;SDS011;66439;50.106;10.996;2023-04-24T07:58:34;4.90;;;2.60;;
77379;SDS011;66439;50.106;10.996;2023-04-24T08:00:37;4.00;;;2.80;;
77379;SDS011;66439;50.106;10.996;2023-04-24T08:02:40;3.90;;;2.60;;
77379;SDS011;66439;50.106;10.996;2023-04-24T08:04:45;4.60;;;2.50;;
77379;SDS011;66439;50.106;10.996;2023-04-24T08:06:51;6.00;;;2.70;;
77379;SDS011;66439;50.106;10.996;2023-04-24T08:08:56;5.60;;;2.60;;
77379;SDS011;66439;50.106;10.996;2023-04-24T08:11:01;3.70;;;2.40;;
77379;SDS011;66439;50.106;10.996;2023-04-24T08:13:06;6.10;;;2.80;;
77379;SDS011;66439;50.106;10.996;2023-04-24T08:15:09;4.00;;;2.70;;
77379;SDS011;66439;50.106;10.996;2023-04-24T08:17:16;5.00;;;2.80;;
77379;SDS011;66439;50.106;10.996;2023-04-24T08:19:20;5.50;;;2.50;;
77379;SDS011;66439;50.106;10.996;2023-04-24T08:21:26;5.70;;;3.00;;
77379;SDS011;66439;50.106;10.996;2023-04-24T08:23:29;4.40;;;2.90;;
77379;SDS011;66439;50.106;10.996;2023-04-24T08:25:33;5.40;;;2.80;;
77379;SDS011;66439;50.106;10.996;2023-04-24T08:27:37;5.00;;;2.80;;
77379;SDS011;66439;50.106;10.996;2023-04-24T08:29:41;4.30;;;2.90;;
77379;SDS011;66439;50.106;10.996;2023-04-24T08:31:46;4.90;;;3.40;;
77379;SDS011;66439;50.106;10.996;2023-04-24T08:33:52;4.50;;;2.70;;
77379;SDS011;66439;50.106;10.996;2023-04-24T08:35:56;4.70;;;2.80;;
77379;SDS011;66439;50.106;10.996;2023-04-24T08:37:59;5.00;;;2.50;;
77379;SDS011;66439;50.106;10.996;2023-04-24T08:40:04;4.60;;;2.50;;
77379;SDS011;66439;50.106;10.996;2023-04-24T08:42:13;5.70;;;2.20;;
77379;SDS011;66439;50.106;10.996;2023-04-24T08:44:18;4.80;;;2.80;;
77379;SDS011;66439;50.106;10.996;2023-04-24T08:46:29;6.40;;;3.20;;
77379;SDS011;66439;50.106;10.996;2023-04-24T08:48:34;5.60;;;2.90;;
77379;SDS011;66439;50.106;10.996;2023-04-24T08:50:40;8.30;;;3.50;;
77379;SDS011;66439;50.106;10.996;2023-04-24T08:52:45;5.20;;;2.70;;
77379;SDS011;66439;50.106;10.996;2023-04-24T08:55:02;5.50;;;3.40;;
77379;SDS011;66439;50.106;10.996;2023-04-24T08:57:08;6.90;;;2.90;;
77379;SDS011;66439;50.106;10.996;2023-04-24T09:01:21;5.50;;;3.50;;
77379;SDS011;66439;50.106;10.996;2023-04-24T09:03:28;4.80;;;3.30;;
77379;SDS011;66439;50.106;10.996;2023-04-24T09:05:32;4.80;;;2.60;;
77379;SDS011;66439;50.106;10.996;2023-04-24T09:07:36;5.60;;;2.30;;
77379;SDS011;66439;50.106;10.996;2023-04-24T09:09:46;4.80;;;3.40;;
77379;SDS011;66439;50.106;10.996;2023-04-24T09:11:52;7.60;;;3.20;;
77379;SDS011;66439;50.106;10.996;2023-04-24T09:14:00;6.00;;;3.10;;
77379;SDS011;66439;50.106;10.996;2023-04-24T09:16:03;5.10;;;3.10;;
77379;SDS011;66439;50.106;10.996;2023-04-24T09:18:09;5.00;;;3.20;;
77379;SDS011;66439;50.106;10.996;2023-04-24T09:20:20;5.30;;;3.20;;
77379;SDS011;66439;50.106;10.996;2023-04-24T09:22:24;6.00;;;4.10;;
77379;SDS011;66439;50.106;10.996;2023-04-24T09:24:29;5.50;;;3.50;;
77379;SDS011;66439;50.106;10.996;2023-04-24T09:26:32;5.50;;;3.30;;
77379;SDS011;66439;50.106;10.996;2023-04-24T09:28:41;5.90;;;2.70;;
77379;SDS011;66439;50.106;10.996;2023-04-24T09:30:44;5.30;;;3.30;;
77379;SDS011;66439;50.106;10.996;2023-04-24T09:32:47;7.20;;;3.30;;
77379;SDS011;66439;50.106;10.996;2023-04-24T09:35:04;5.40;;;3.10;;
77379;SDS011;66439;50.106;10.996;2023-04-24T09:37:10;7.70;;;3.40;;
77379;SDS011;66439;50.106;10.996;2023-04-24T09:39:15;5.50;;;3.40;;
77379;SDS011;66439;50.106;10.996;2023-04-24T09:41:23;4.90;;;3.20;;
77379;SDS011;66439;50.106;10.996;2023-04-24T09:43:28;6.40;;;3.20;;
77379;SDS011;66439;50.106;10.996;2023-04-24T09:45:36;6.30;;;3.50;;
77379;SDS011;66439;50.106;10.996;2023-04-24T09:47:40;6.10;;;3.20;;
77379;SDS011;66439;50.106;10.996;2023-04-24T09:49:44;6.00;;;3.20;;
77379;SDS011;66439;50.106;10.996;2023-04-24T09:51:49;3.80;;;3.10;;
77379;SDS011;66439;50.106;10.996;2023-04-24T09:53:51;3.80;;;2.60;;
77379;SDS011;66439;50.106;10.996;2023-04-24T09:56:10;6.10;;;2.80;;
77379;SDS011;66439;50.106;10.996;2023-04-24T09:58:24;3.70;;;2.60;;
77379;SDS011;66439;50.106;10.996;2023-04-24T10:00:30;4.30;;;2.70;;
77379;SDS011;66439;50.106;10.996;2023-04-24T10:02:37;4.70;;;2.90;;
77379;SDS011;66439;50.106;10.996;2023-04-24T10:04:41;4.00;;;2.80;;
77379;SDS011;66439;50.106;10.996;2023-04-24T10:06:58;4.90;;;3.10;;
77379;SDS011;66439;50.106;10.996;2023-04-24T10:09:02;6.90;;;2.80;;
77379;SDS011;66439;50.106;10.996;2023-04-24T10:11:06;4.90;;;2.70;;
77379;SDS011;66439;50.106;10.996;2023-04-24T10:13:10;7.40;;;2.90;;
77379;SDS011;66439;50.106;10.996;2023-04-24T10:15:16;4.50;;;2.10;;
77379;SDS011;66439;50.106;10.996;2023-04-24T10:17:23;4.70;;;2.50;;
77379;SDS011;66439;50.106;10.996;2023-04-24T10:21:37;3.50;;;2.00;;
77379;SDS011;66439;50.106;10.996;2023-04-24T10:23:46;3.70;;;2.40;;
77379;SDS011;66439;50.106;10.996;2023-04-24T10:25:52;5.00;;;2.10;;
77379;SDS011;66439;50.106;10.996;2023-04-24T10:27:55;4.20;;;2.40;;
77379;SDS011;66439;50.106;10.996;2023-04-24T10:30:04;3.10;;;2.20;;
77379;SDS011;66439;50.106;10.996;2023-04-24T10:32:10;4.80;;;2.40;;
77379;SDS011;66439;50.106;10.996;2023-04-24T10:34:16;3.30;;;2.30;;
77379;SDS011;66439;50.106;10.996;2023-04-24T10:36:23;2.60;;;1.70;;
77379;SDS011;66439;50.106;10.996;2023-04-24T10:38:31;3.70;;;1.80;;
77379;SDS011;66439;50.106;10.996;2023-04-24T10:40:36;3.90;;;2.30;;
77379;SDS011;66439;50.106;10.996;2023-04-24T10:42:40;3.40;;;2.30;;
77379;SDS011;66439;50.106;10.996;2023-04-24T10:44:48;2.80;;;2.10;;
77379;SDS011;66439;50.106;10.996;2023-04-24T10:46:55;6.80;;;2.50;;
77379;SDS011;66439;50.106;10.996;2023-04-24T10:48:59;4.50;;;3.00;;
77379;SDS011;66439;50.106;10.996;2023-04-24T10:51:12;3.90;;;2.80;;
77379;SDS011;66439;50.106;10.996;2023-04-24T10:53:20;3.30;;;2.50;;
77379;SDS011;66439;50.106;10.996;2023-04-24T10:55:44;5.60;;;3.50;;
77379;SDS011;66439;50.106;10.996;2023-04-24T10:58:02;5.30;;;2.50;;
77379;SDS011;66439;50.106;10.996;2023-04-24T11:00:18;7.00;;;2.80;;
77379;SDS011;66439;50.106;10.996;2023-04-24T11:02:35;6.20;;;3.00;;
77379;SDS011;66439;50.106;10.996;2023-04-24T11:04:43;8.00;;;3.10;;
77379;SDS011;66439;50.106;10.996;2023-04-24T11:06:52;5.70;;;2.60;;
77379;SDS011;66439;50.106;10.996;2023-04-24T11:09:03;6.00;;;2.70;;
77379;SDS011;66439;50.106;10.996;2023-04-24T11:11:16;4.40;;;2.80;;
77379;SDS011;66439;50.106;10.996;2023-04-24T11:13:21;5.50;;;2.50;;
77379;SDS011;66439;50.106;10.996;2023-04-24T11:15:25;5.60;;;3.30;;
77379;SDS011;66439;50.106;10.996;2023-04-24T11:17:29;6.10;;;3.40;;
77379;SDS011;66439;50.106;10.996;2023-04-24T11:19:42;6.50;;;3.30;;
77379;SDS011;66439;50.106;10.996;2023-04-24T11:21:59;5.80;;;3.10;;
77379;SDS011;66439;50.106;10.996;2023-04-24T11:24:50;4.40;;;2.50;;
77379;SDS011;66439;50.106;10.996;2023-04-24T11:26:28;4.20;;;2.80;;
77379;SDS011;66439;50.106;10.996;2023-04-24T11:28:34;5.10;;;2.80;;
77379;SDS011;66439;50.106;10.996;2023-04-24T11:30:39;6.00;;;3.10;;
77379;SDS011;66439;50.106;10.996;2023-04-24T11:32:42;8.20;;;3.30;;
77379;SDS011;66439;50.106;10.996;2023-04-24T11:34:47;5.30;;;3.40;;
77379;SDS011;66439;50.106;10.996;2023-04-24T11:36:52;3.60;;;2.70;;
77379;SDS011;66439;50.106;10.996;2023-04-24T11:38:56;6.00;;;3.00;;
77379;SDS011;66439;50.106;10.996;2023-04-24T11:41:16;4.20;;;3.00;;
77379;SDS011;66439;50.106;10.996;2023-04-24T11:43:20;4.80;;;2.90;;
77379;SDS011;66439;50.106;10.996;2023-04-24T11:45:29;5.80;;;3.20;;
77379;SDS011;66439;50.106;10.996;2023-04-24T11:47:35;8.00;;;5.30;;
77379;SDS011;66439;50.106;10.996;2023-04-24T11:49:40;4.30;;;2.90;;
77379;SDS011;66439;50.106;10.996;2023-04-24T11:51:44;3.80;;;2.90;;
77379;SDS011;66439;50.106;10.996;2023-04-24T11:53:55;6.40;;;2.70;;
77379;SDS011;66439;50.106;10.996;2023-04-24T11:56:08;5.00;;;3.30;;
77379;SDS011;66439;50.106;10.996;2023-04-24T11:58:11;5.40;;;2.80;;
77379;SDS011;66439;50.106;10.996;2023-04-24T12:00:16;5.90;;;3.20;;
77379;SDS011;66439;50.106;10.996;2023-04-24T12:02:24;5.60;;;3.30;;
77379;SDS011;66439;50.106;10.996;2023-04-24T12:04:39;9.80;;;3.30;;
77379;SDS011;66439;50.106;10.996;2023-04-24T12:07:06;4.20;;;2.90;;
77379;SDS011;66439;50.106;10.996;2023-04-24T12:09:15;4.20;;;3.10;;
77379;SDS011;66439;50.106;10.996;2023-04-24T12:11:27;6.00;;;3.70;;
77379;SDS011;66439;50.106;10.996;2023-04-24T12:13:32;5.00;;;3.30;;
77379;SDS011;66439;50.106;10.996;2023-04-24T12:15:39;4.60;;;3.00;;
77379;SDS011;66439;50.106;10.996;2023-04-24T12:17:46;5.20;;;3.30;;
77379;SDS011;66439;50.106;10.996;2023-04-24T12:19:51;4.90;;;2.90;;
77379;SDS011;66439;50.106;10.996;2023-04-24T12:22:00;4.90;;;3.60;;
77379;SDS011;66439;50.106;10.996;2023-04-24T12:24:09;4.80;;;2.90;;
77379;SDS011;66439;50.106;10.996;2023-04-24T12:26:15;5.20;;;3.20;;
77379;SDS011;66439;50.106;10.996;2023-04-24T12:28:23;3.00;;;2.40;;
77379;SDS011;66439;50.106;10.996;2023-04-24T12:30:29;4.60;;;3.50;;
77379;SDS011;66439;50.106;10.996;2023-04-24T12:32:52;4.90;;;3.20;;
77379;SDS011;66439;50.106;10.996;2023-04-24T12:34:59;5.90;;;3.30;;
77379;SDS011;66439;50.106;10.996;2023-04-24T12:37:11;4.70;;;3.00;;
77379;SDS011;66439;50.106;10.996;2023-04-24T12:39:19;3.90;;;3.00;;